Back to Top
Banner_Quays_at_Mast_2020.jpeg
Banner_VERITY.jpeg
Banner_P42_Kinsale_2004.jpeg
Superyacht_SCOUT.jpg
Kinsale_Trawlers_Banner.jpeg
previous arrow
next arrow

Port Arrivals Report (AIS)

This report is generated from collected AIS (Automated Identification System) signals from vessels entering port.

IMO MMSI Class Flag Vessel Name Vessel type Nav Status Destination Call Sign Latitude Longitude Speed (kts) Course (T) Draught (m) LOA (m) Beam (m) Timestamp
0 250004156 A IE F/V BREIZH ARVOR II FISHING. - KINSALE EIRX3 51.6889 -8.49891 9.5 343.7 3.2 23 6 2024-06-09 06:25:56
0 211468590 B DE SY SEESTERN SAILING. - DB4246 51.6887 -8.49889 6.2 0.7 0 12 3 2024-06-08 18:58:05
0 250003294 B IE STILL MAGIC SAILING. - EI-JP-6 51.6875 -8.49808 6.3 353.4 0 12 3 2024-06-08 17:27:03
0 250014114 B IE JAVA BLUE SAILING. - EIA2579 51.6882 -8.49815 7.3 3.6 0 14 4 2024-06-08 16:47:20
0 250005916 B IE CIMARRON Pleasure craft - EIWS3 51.6888 -8.50136 6.5 350.3 0 13 3 2024-06-08 16:30:46
0 235065557 B GB KEMOSABE SAILING. - 2BEY3 51.69 -8.50019 6.3 341.9 0 11 3 2024-06-08 16:01:07
0 250005288 B IE LE VIV SAILING. - EI UK 2 51.6894 -8.50067 5.4 347.5 0 0 0 2024-06-08 15:41:22
0 250005786 B IE KATELIN SAILING. - EIWD7 51.6875 -8.49669 2.1 343.9 0 19 16 2024-06-08 15:36:55
0 250014182 A IE LADY CATHERINE PASSENGER. - EIA2647 51.6871 -8.49707 8.4 352.5 0 0 0 2024-06-08 14:01:31
0 367617140 B US MIDNIGHT VOYAGEUR SAILING. - WDH4381 51.6877 -8.49929 4.9 2.5 0 14 2 2024-06-08 13:24:30
0 250000544 B IE EXPLORER SAILING. - EI8505 51.6888 -8.49928 7 348 0 13 4 2024-06-08 13:23:28
0 232016609 B GB RNLI LIFEBOAT B-909 SAR. - 51.6932 -8.53449 20.9 150 0 8 2 2024-06-08 10:32:06
0 250014182 A IE LADY CATHERINE PASSENGER. - EIA2647 51.6874 -8.49657 9.4 356.2 0 0 0 2024-06-08 09:24:32
0 250005938 B IE ATLANTIS 11 KINSALE SAILING. - EI-WU-3 51.6876 -8.50083 2.5 5.7 0 19 15 2024-06-07 20:51:15
0 250006035 B IE VALFREYA SAILING. - EI-XB-6 51.6881 -8.50243 5.1 337.1 0 10 3 2024-06-07 20:21:05
0 250005095 B IE GGENESIS SAILING. - EITK2 51.6873 -8.50179 3.4 334.5 0 11 4 2024-06-07 20:20:49
0 250003677 B IE SIBONEY SAILING. - EI-QT-2 51.6872 -8.50175 3.8 343.9 0 9 4 2024-06-07 20:19:53
0 227167050 B FR DOLENN SAILING. - FAA8887 51.6879 -8.49975 6.5 344.5 0 11 4 2024-06-07 18:43:53
0 205889830 B BE MOLLY-AIDA SAILING. - OP8898 51.6872 -8.49997 6.2 353 0 13 4 2024-06-07 17:51:57
0 250001707 B IE PYLADES Pleasure craft - EI 5024 51.688 -8.49971 3.4 339.5 0 12 3 2024-06-07 16:17:36